sensor_id;sensor_type;location;lat;lon;timestamp;P1;durP1;ratioP1;P2;durP2;ratioP2
489;SDS011;231;48.120;11.576;2022-12-18T00:02:18;42.50;;;26.83;;
489;SDS011;231;48.120;11.576;2022-12-18T00:04:48;34.83;;;24.77;;
489;SDS011;231;48.120;11.576;2022-12-18T00:07:17;42.50;;;28.07;;
489;SDS011;231;48.120;11.576;2022-12-18T00:09:44;46.63;;;27.07;;
489;SDS011;231;48.120;11.576;2022-12-18T00:12:12;47.73;;;25.20;;
489;SDS011;231;48.120;11.576;2022-12-18T00:14:40;40.73;;;26.30;;
489;SDS011;231;48.120;11.576;2022-12-18T00:17:07;46.60;;;25.90;;
489;SDS011;231;48.120;11.576;2022-12-18T00:19:34;51.07;;;31.10;;
489;SDS011;231;48.120;11.576;2022-12-18T00:22:01;47.47;;;28.90;;
489;SDS011;231;48.120;11.576;2022-12-18T00:24:28;44.27;;;27.97;;
489;SDS011;231;48.120;11.576;2022-12-18T00:26:55;46.10;;;28.23;;
489;SDS011;231;48.120;11.576;2022-12-18T00:29:22;46.67;;;27.50;;
489;SDS011;231;48.120;11.576;2022-12-18T00:31:50;47.00;;;30.27;;
489;SDS011;231;48.120;11.576;2022-12-18T00:34:17;53.20;;;31.53;;
489;SDS011;231;48.120;11.576;2022-12-18T00:36:47;43.70;;;28.37;;
489;SDS011;231;48.120;11.576;2022-12-18T00:39:14;51.20;;;31.07;;
489;SDS011;231;48.120;11.576;2022-12-18T00:41:41;58.57;;;31.70;;
489;SDS011;231;48.120;11.576;2022-12-18T00:44:25;53.30;;;29.97;;
489;SDS011;231;48.120;11.576;2022-12-18T00:46:53;51.47;;;32.00;;
489;SDS011;231;48.120;11.576;2022-12-18T00:49:20;54.03;;;30.30;;
489;SDS011;231;48.120;11.576;2022-12-18T00:51:48;48.33;;;30.33;;
489;SDS011;231;48.120;11.576;2022-12-18T00:54:15;53.13;;;31.07;;
489;SDS011;231;48.120;11.576;2022-12-18T00:56:43;47.37;;;26.43;;
489;SDS011;231;48.120;11.576;2022-12-18T00:59:10;40.17;;;28.50;;
489;SDS011;231;48.120;11.576;2022-12-18T01:01:37;43.53;;;25.97;;
489;SDS011;231;48.120;11.576;2022-12-18T01:04:05;40.83;;;25.33;;
489;SDS011;231;48.120;11.576;2022-12-18T01:06:32;47.70;;;29.13;;
489;SDS011;231;48.120;11.576;2022-12-18T01:08:59;49.60;;;29.70;;
489;SDS011;231;48.120;11.576;2022-12-18T01:11:26;49.70;;;28.73;;
489;SDS011;231;48.120;11.576;2022-12-18T01:13:53;43.50;;;25.83;;
489;SDS011;231;48.120;11.576;2022-12-18T01:16:21;44.43;;;26.63;;
489;SDS011;231;48.120;11.576;2022-12-18T01:18:51;44.70;;;27.63;;
489;SDS011;231;48.120;11.576;2022-12-18T01:21:21;47.40;;;27.07;;
489;SDS011;231;48.120;11.576;2022-12-18T01:23:51;47.67;;;30.07;;
489;SDS011;231;48.120;11.576;2022-12-18T01:26:19;48.50;;;29.37;;
489;SDS011;231;48.120;11.576;2022-12-18T01:28:46;47.03;;;27.90;;
489;SDS011;231;48.120;11.576;2022-12-18T01:31:14;42.97;;;26.10;;
489;SDS011;231;48.120;11.576;2022-12-18T01:33:42;44.07;;;25.27;;
489;SDS011;231;48.120;11.576;2022-12-18T01:36:14;45.10;;;26.10;;
489;SDS011;231;48.120;11.576;2022-12-18T01:38:44;47.50;;;28.47;;
489;SDS011;231;48.120;11.576;2022-12-18T01:41:11;46.17;;;27.03;;
489;SDS011;231;48.120;11.576;2022-12-18T01:43:42;39.27;;;26.60;;
489;SDS011;231;48.120;11.576;2022-12-18T01:46:15;51.33;;;28.20;;
489;SDS011;231;48.120;11.576;2022-12-18T01:48:44;45.83;;;28.30;;
489;SDS011;231;48.120;11.576;2022-12-18T01:51:15;44.37;;;28.30;;
489;SDS011;231;48.120;11.576;2022-12-18T01:53:44;62.47;;;29.40;;
489;SDS011;231;48.120;11.576;2022-12-18T01:56:13;44.73;;;25.70;;
489;SDS011;231;48.120;11.576;2022-12-18T01:58:44;50.63;;;28.80;;
489;SDS011;231;48.120;11.576;2022-12-18T02:01:18;47.63;;;26.07;;
489;SDS011;231;48.120;11.576;2022-12-18T02:03:46;54.93;;;30.07;;
489;SDS011;231;48.120;11.576;2022-12-18T02:06:15;49.40;;;28.20;;
489;SDS011;231;48.120;11.576;2022-12-18T02:08:50;50.67;;;30.37;;
489;SDS011;231;48.120;11.576;2022-12-18T02:11:27;55.50;;;28.93;;
489;SDS011;231;48.120;11.576;2022-12-18T02:14:07;44.73;;;28.27;;
489;SDS011;231;48.120;11.576;2022-12-18T02:16:44;51.70;;;28.40;;
489;SDS011;231;48.120;11.576;2022-12-18T02:19:25;47.60;;;29.87;;
489;SDS011;231;48.120;11.576;2022-12-18T02:22:06;53.83;;;28.83;;
489;SDS011;231;48.120;11.576;2022-12-18T02:24:48;56.83;;;29.53;;
489;SDS011;231;48.120;11.576;2022-12-18T02:27:27;46.70;;;28.13;;
489;SDS011;231;48.120;11.576;2022-12-18T02:29:56;61.93;;;32.97;;
489;SDS011;231;48.120;11.576;2022-12-18T02:32:26;50.27;;;28.97;;
489;SDS011;231;48.120;11.576;2022-12-18T02:34:59;47.53;;;30.13;;
489;SDS011;231;48.120;11.576;2022-12-18T02:37:31;45.67;;;29.97;;
489;SDS011;231;48.120;11.576;2022-12-18T02:40:00;53.40;;;31.17;;
489;SDS011;231;48.120;11.576;2022-12-18T02:42:32;47.93;;;30.00;;
489;SDS011;231;48.120;11.576;2022-12-18T02:44:59;52.73;;;27.43;;
489;SDS011;231;48.120;11.576;2022-12-18T02:47:29;52.50;;;28.70;;
489;SDS011;231;48.120;11.576;2022-12-18T02:50:02;48.97;;;28.73;;
489;SDS011;231;48.120;11.576;2022-12-18T02:52:35;51.43;;;30.30;;
489;SDS011;231;48.120;11.576;2022-12-18T02:55:13;55.00;;;29.03;;
489;SDS011;231;48.120;11.576;2022-12-18T02:57:48;53.77;;;29.40;;
489;SDS011;231;48.120;11.576;2022-12-18T03:00:19;55.23;;;30.37;;
489;SDS011;231;48.120;11.576;2022-12-18T03:02:50;53.63;;;31.90;;
489;SDS011;231;48.120;11.576;2022-12-18T03:05:22;49.73;;;28.17;;
489;SDS011;231;48.120;11.576;2022-12-18T03:07:55;56.63;;;29.73;;
489;SDS011;231;48.120;11.576;2022-12-18T03:10:25;49.60;;;27.83;;
489;SDS011;231;48.120;11.576;2022-12-18T03:12:59;63.07;;;31.40;;
489;SDS011;231;48.120;11.576;2022-12-18T03:15:30;55.83;;;31.20;;
489;SDS011;231;48.120;11.576;2022-12-18T03:18:02;53.50;;;29.60;;
489;SDS011;231;48.120;11.576;2022-12-18T03:20:34;50.83;;;29.30;;
489;SDS011;231;48.120;11.576;2022-12-18T03:23:04;55.50;;;30.97;;
489;SDS011;231;48.120;11.576;2022-12-18T03:25:35;58.43;;;31.10;;
489;SDS011;231;48.120;11.576;2022-12-18T03:28:07;53.30;;;30.90;;
489;SDS011;231;48.120;11.576;2022-12-18T03:30:39;53.10;;;29.20;;
489;SDS011;231;48.120;11.576;2022-12-18T03:33:10;57.03;;;30.37;;
489;SDS011;231;48.120;11.576;2022-12-18T03:35:42;55.87;;;31.57;;
489;SDS011;231;48.120;11.576;2022-12-18T03:38:10;49.83;;;27.90;;
489;SDS011;231;48.120;11.576;2022-12-18T03:40:40;48.63;;;31.27;;
489;SDS011;231;48.120;11.576;2022-12-18T03:43:18;45.77;;;27.63;;
489;SDS011;231;48.120;11.576;2022-12-18T03:45:51;58.47;;;29.87;;
489;SDS011;231;48.120;11.576;2022-12-18T03:48:21;52.97;;;31.77;;
489;SDS011;231;48.120;11.576;2022-12-18T03:50:56;53.60;;;31.40;;
489;SDS011;231;48.120;11.576;2022-12-18T03:53:28;49.43;;;27.10;;
489;SDS011;231;48.120;11.576;2022-12-18T03:56:03;52.77;;;29.50;;
489;SDS011;231;48.120;11.576;2022-12-18T03:58:32;50.50;;;28.87;;
489;SDS011;231;48.120;11.576;2022-12-18T04:01:01;53.90;;;29.83;;
489;SDS011;231;48.120;11.576;2022-12-18T04:03:31;51.90;;;32.50;;
489;SDS011;231;48.120;11.576;2022-12-18T04:06:00;48.60;;;30.07;;
489;SDS011;231;48.120;11.576;2022-12-18T04:08:28;46.93;;;29.93;;
489;SDS011;231;48.120;11.576;2022-12-18T04:10:55;45.80;;;30.77;;
489;SDS011;231;48.120;11.576;2022-12-18T04:13:27;59.97;;;33.17;;
489;SDS011;231;48.120;11.576;2022-12-18T04:15:56;48.67;;;29.27;;
489;SDS011;231;48.120;11.576;2022-12-18T04:18:23;48.50;;;29.83;;
489;SDS011;231;48.120;11.576;2022-12-18T04:20:50;50.03;;;31.77;;
489;SDS011;231;48.120;11.576;2022-12-18T04:23:17;55.20;;;29.33;;
489;SDS011;231;48.120;11.576;2022-12-18T04:25:45;48.83;;;31.70;;
489;SDS011;231;48.120;11.576;2022-12-18T04:28:12;49.57;;;31.03;;
489;SDS011;231;48.120;11.576;2022-12-18T04:30:39;49.23;;;28.37;;
489;SDS011;231;48.120;11.576;2022-12-18T04:33:09;57.60;;;34.33;;
489;SDS011;231;48.120;11.576;2022-12-18T04:35:37;51.97;;;27.57;;
489;SDS011;231;48.120;11.576;2022-12-18T04:38:05;47.97;;;28.77;;
489;SDS011;231;48.120;11.576;2022-12-18T04:40:31;46.43;;;27.93;;
489;SDS011;231;48.120;11.576;2022-12-18T04:42:58;47.00;;;27.77;;
489;SDS011;231;48.120;11.576;2022-12-18T04:45:25;45.20;;;27.97;;
489;SDS011;231;48.120;11.576;2022-12-18T04:47:52;44.20;;;25.90;;
489;SDS011;231;48.120;11.576;2022-12-18T04:50:20;46.57;;;26.77;;
489;SDS011;231;48.120;11.576;2022-12-18T04:52:47;40.27;;;25.87;;
489;SDS011;231;48.120;11.576;2022-12-18T04:55:14;47.40;;;27.80;;
489;SDS011;231;48.120;11.576;2022-12-18T04:57:41;48.03;;;27.30;;
489;SDS011;231;48.120;11.576;2022-12-18T05:00:11;40.63;;;25.10;;
489;SDS011;231;48.120;11.576;2022-12-18T05:02:39;50.73;;;27.90;;
489;SDS011;231;48.120;11.576;2022-12-18T05:05:06;42.27;;;26.17;;
489;SDS011;231;48.120;11.576;2022-12-18T05:07:35;38.07;;;23.63;;
489;SDS011;231;48.120;11.576;2022-12-18T05:10:02;40.53;;;26.63;;
489;SDS011;231;48.120;11.576;2022-12-18T05:12:30;39.57;;;24.93;;
489;SDS011;231;48.120;11.576;2022-12-18T05:14:57;35.73;;;22.17;;
489;SDS011;231;48.120;11.576;2022-12-18T05:17:24;33.20;;;22.80;;
489;SDS011;231;48.120;11.576;2022-12-18T05:19:51;40.10;;;25.60;;
489;SDS011;231;48.120;11.576;2022-12-18T05:22:18;37.87;;;24.60;;
489;SDS011;231;48.120;11.576;2022-12-18T05:24:46;40.43;;;25.47;;
489;SDS011;231;48.120;11.576;2022-12-18T05:27:13;37.37;;;24.63;;
489;SDS011;231;48.120;11.576;2022-12-18T05:29:40;34.50;;;24.17;;
489;SDS011;231;48.120;11.576;2022-12-18T05:32:07;36.50;;;22.40;;
489;SDS011;231;48.120;11.576;2022-12-18T05:34:34;36.80;;;24.43;;
489;SDS011;231;48.120;11.576;2022-12-18T05:37:01;37.50;;;24.37;;
489;SDS011;231;48.120;11.576;2022-12-18T05:39:28;41.70;;;25.20;;
489;SDS011;231;48.120;11.576;2022-12-18T05:41:57;44.33;;;25.40;;
489;SDS011;231;48.120;11.576;2022-12-18T05:44:23;45.60;;;25.03;;
489;SDS011;231;48.120;11.576;2022-12-18T05:46:50;38.00;;;25.57;;
489;SDS011;231;48.120;11.576;2022-12-18T05:49:17;38.77;;;22.30;;
489;SDS011;231;48.120;11.576;2022-12-18T05:51:44;45.00;;;24.27;;
489;SDS011;231;48.120;11.576;2022-12-18T05:54:11;45.60;;;26.13;;
489;SDS011;231;48.120;11.576;2022-12-18T05:56:38;38.53;;;22.80;;
489;SDS011;231;48.120;11.576;2022-12-18T05:59:06;40.97;;;23.80;;
489;SDS011;231;48.120;11.576;2022-12-18T06:01:33;36.17;;;22.60;;
489;SDS011;231;48.120;11.576;2022-12-18T06:04:00;38.27;;;23.03;;
489;SDS011;231;48.120;11.576;2022-12-18T06:06:27;37.17;;;23.33;;
489;SDS011;231;48.120;11.576;2022-12-18T06:08:55;38.07;;;25.50;;
489;SDS011;231;48.120;11.576;2022-12-18T06:11:23;39.37;;;23.00;;
489;SDS011;231;48.120;11.576;2022-12-18T06:13:51;33.50;;;22.00;;
489;SDS011;231;48.120;11.576;2022-12-18T06:16:21;30.43;;;22.33;;
489;SDS011;231;48.120;11.576;2022-12-18T06:18:47;45.33;;;27.00;;
489;SDS011;231;48.120;11.576;2022-12-18T06:21:14;35.43;;;23.10;;
489;SDS011;231;48.120;11.576;2022-12-18T06:23:41;40.63;;;26.90;;
489;SDS011;231;48.120;11.576;2022-12-18T06:26:09;36.50;;;23.97;;
489;SDS011;231;48.120;11.576;2022-12-18T06:28:37;35.20;;;23.17;;
489;SDS011;231;48.120;11.576;2022-12-18T06:31:05;38.30;;;23.83;;
489;SDS011;231;48.120;11.576;2022-12-18T06:33:34;35.80;;;24.63;;
489;SDS011;231;48.120;11.576;2022-12-18T06:36:02;43.67;;;24.53;;
489;SDS011;231;48.120;11.576;2022-12-18T06:38:31;35.60;;;25.23;;
489;SDS011;231;48.120;11.576;2022-12-18T06:40:58;32.50;;;22.20;;
489;SDS011;231;48.120;11.576;2022-12-18T06:43:25;38.47;;;23.37;;
489;SDS011;231;48.120;11.576;2022-12-18T06:45:57;33.30;;;20.60;;
489;SDS011;231;48.120;11.576;2022-12-18T06:48:25;39.83;;;23.20;;
489;SDS011;231;48.120;11.576;2022-12-18T06:50:53;44.47;;;25.63;;
489;SDS011;231;48.120;11.576;2022-12-18T06:53:20;45.33;;;26.03;;
489;SDS011;231;48.120;11.576;2022-12-18T06:55:47;41.20;;;25.13;;
489;SDS011;231;48.120;11.576;2022-12-18T06:58:14;44.47;;;23.10;;
489;SDS011;231;48.120;11.576;2022-12-18T07:00:41;41.60;;;24.53;;
489;SDS011;231;48.120;11.576;2022-12-18T07:03:08;40.53;;;26.07;;
489;SDS011;231;48.120;11.576;2022-12-18T07:05:39;46.13;;;25.30;;
489;SDS011;231;48.120;11.576;2022-12-18T07:08:07;35.60;;;25.00;;
489;SDS011;231;48.120;11.576;2022-12-18T07:10:39;33.97;;;22.67;;
489;SDS011;231;48.120;11.576;2022-12-18T07:13:07;41.70;;;24.67;;
489;SDS011;231;48.120;11.576;2022-12-18T07:15:34;39.43;;;23.53;;
489;SDS011;231;48.120;11.576;2022-12-18T07:18:01;39.83;;;23.73;;
489;SDS011;231;48.120;11.576;2022-12-18T07:20:28;33.80;;;22.40;;
489;SDS011;231;48.120;11.576;2022-12-18T07:22:55;35.90;;;24.20;;
489;SDS011;231;48.120;11.576;2022-12-18T07:25:24;34.57;;;22.80;;
489;SDS011;231;48.120;11.576;2022-12-18T07:27:51;41.73;;;25.53;;
489;SDS011;231;48.120;11.576;2022-12-18T07:30:18;35.43;;;19.97;;
489;SDS011;231;48.120;11.576;2022-12-18T07:32:45;33.23;;;21.00;;
489;SDS011;231;48.120;11.576;2022-12-18T07:35:11;40.13;;;23.10;;
489;SDS011;231;48.120;11.576;2022-12-18T07:37:38;35.13;;;24.17;;
489;SDS011;231;48.120;11.576;2022-12-18T07:40:06;43.97;;;25.10;;
489;SDS011;231;48.120;11.576;2022-12-18T07:42:35;39.00;;;24.13;;
489;SDS011;231;48.120;11.576;2022-12-18T07:45:03;36.60;;;22.57;;
489;SDS011;231;48.120;11.576;2022-12-18T07:47:30;36.70;;;23.97;;
489;SDS011;231;48.120;11.576;2022-12-18T07:49:59;28.30;;;20.70;;
489;SDS011;231;48.120;11.576;2022-12-18T07:52:26;37.33;;;24.47;;
489;SDS011;231;48.120;11.576;2022-12-18T07:54:53;33.23;;;21.20;;
489;SDS011;231;48.120;11.576;2022-12-18T07:57:20;39.63;;;19.53;;
489;SDS011;231;48.120;11.576;2022-12-18T07:59:48;27.97;;;20.03;;
489;SDS011;231;48.120;11.576;2022-12-18T08:02:15;36.03;;;25.47;;
489;SDS011;231;48.120;11.576;2022-12-18T08:04:42;41.30;;;22.60;;
489;SDS011;231;48.120;11.576;2022-12-18T08:07:09;35.33;;;22.43;;
489;SDS011;231;48.120;11.576;2022-12-18T08:09:36;36.37;;;23.27;;
489;SDS011;231;48.120;11.576;2022-12-18T08:12:22;31.33;;;21.50;;
489;SDS011;231;48.120;11.576;2022-12-18T08:14:50;32.03;;;22.77;;
489;SDS011;231;48.120;11.576;2022-12-18T08:17:18;32.90;;;22.53;;
489;SDS011;231;48.120;11.576;2022-12-18T08:19:45;32.50;;;21.27;;
489;SDS011;231;48.120;11.576;2022-12-18T08:22:12;29.97;;;18.43;;
489;SDS011;231;48.120;11.576;2022-12-18T08:24:39;35.57;;;21.20;;
489;SDS011;231;48.120;11.576;2022-12-18T08:27:06;32.57;;;21.03;;
489;SDS011;231;48.120;11.576;2022-12-18T08:29:35;36.00;;;23.00;;
489;SDS011;231;48.120;11.576;2022-12-18T08:32:09;32.80;;;21.63;;
489;SDS011;231;48.120;11.576;2022-12-18T08:34:36;38.03;;;22.50;;
489;SDS011;231;48.120;11.576;2022-12-18T08:37:03;32.17;;;23.73;;
489;SDS011;231;48.120;11.576;2022-12-18T08:39:30;35.63;;;22.30;;
489;SDS011;231;48.120;11.576;2022-12-18T08:41:57;37.30;;;20.57;;
489;SDS011;231;48.120;11.576;2022-12-18T08:44:46;35.10;;;22.60;;
489;SDS011;231;48.120;11.576;2022-12-18T08:47:15;30.00;;;21.47;;
489;SDS011;231;48.120;11.576;2022-12-18T08:49:43;33.37;;;22.43;;
489;SDS011;231;48.120;11.576;2022-12-18T08:52:10;39.23;;;24.10;;
489;SDS011;231;48.120;11.576;2022-12-18T08:54:37;37.53;;;24.50;;
489;SDS011;231;48.120;11.576;2022-12-18T08:57:04;30.70;;;22.63;;
489;SDS011;231;48.120;11.576;2022-12-18T08:59:31;32.70;;;21.00;;
489;SDS011;231;48.120;11.576;2022-12-18T09:01:58;30.20;;;19.40;;
489;SDS011;231;48.120;11.576;2022-12-18T09:04:26;33.77;;;21.77;;
489;SDS011;231;48.120;11.576;2022-12-18T09:06:53;32.37;;;21.63;;
489;SDS011;231;48.120;11.576;2022-12-18T09:09:20;27.90;;;17.87;;
489;SDS011;231;48.120;11.576;2022-12-18T09:11:47;29.60;;;18.73;;
489;SDS011;231;48.120;11.576;2022-12-18T09:14:14;28.47;;;18.20;;
489;SDS011;231;48.120;11.576;2022-12-18T09:16:43;33.63;;;19.77;;
489;SDS011;231;48.120;11.576;2022-12-18T09:19:10;35.83;;;21.83;;
489;SDS011;231;48.120;11.576;2022-12-18T09:21:38;31.93;;;20.87;;
489;SDS011;231;48.120;11.576;2022-12-18T09:24:06;31.40;;;19.00;;
489;SDS011;231;48.120;11.576;2022-12-18T09:26:37;31.67;;;21.07;;
489;SDS011;231;48.120;11.576;2022-12-18T09:29:04;33.67;;;23.40;;
489;SDS011;231;48.120;11.576;2022-12-18T09:31:32;29.90;;;19.80;;
489;SDS011;231;48.120;11.576;2022-12-18T09:34:00;31.13;;;20.73;;
489;SDS011;231;48.120;11.576;2022-12-18T09:36:27;32.50;;;20.90;;
489;SDS011;231;48.120;11.576;2022-12-18T09:38:55;32.67;;;20.23;;
489;SDS011;231;48.120;11.576;2022-12-18T09:41:34;31.50;;;19.83;;
489;SDS011;231;48.120;11.576;2022-12-18T09:46:59;42.50;;;22.57;;
489;SDS011;231;48.120;11.576;2022-12-18T09:49:37;30.83;;;20.93;;
489;SDS011;231;48.120;11.576;2022-12-18T09:52:09;29.70;;;21.97;;
489;SDS011;231;48.120;11.576;2022-12-18T09:54:45;35.93;;;19.70;;
489;SDS011;231;48.120;11.576;2022-12-18T09:57:17;35.63;;;22.83;;
489;SDS011;231;48.120;11.576;2022-12-18T09:59:48;30.27;;;20.53;;
489;SDS011;231;48.120;11.576;2022-12-18T10:02:20;27.40;;;20.23;;
489;SDS011;231;48.120;11.576;2022-12-18T10:04:56;29.50;;;18.60;;
489;SDS011;231;48.120;11.576;2022-12-18T10:07:35;36.07;;;22.27;;
489;SDS011;231;48.120;11.576;2022-12-18T10:10:13;33.53;;;20.80;;
489;SDS011;231;48.120;11.576;2022-12-18T10:12:53;31.53;;;20.87;;
489;SDS011;231;48.120;11.576;2022-12-18T10:15:27;27.87;;;20.20;;
489;SDS011;231;48.120;11.576;2022-12-18T10:18:01;34.70;;;22.03;;
489;SDS011;231;48.120;11.576;2022-12-18T10:20:41;26.53;;;19.17;;
489;SDS011;231;48.120;11.576;2022-12-18T10:23:14;28.70;;;17.50;;
489;SDS011;231;48.120;11.576;2022-12-18T10:25:52;33.13;;;20.23;;
489;SDS011;231;48.120;11.576;2022-12-18T10:28:25;35.10;;;22.67;;
489;SDS011;231;48.120;11.576;2022-12-18T10:30:55;36.03;;;22.40;;
489;SDS011;231;48.120;11.576;2022-12-18T10:33:23;32.13;;;20.10;;
489;SDS011;231;48.120;11.576;2022-12-18T10:35:53;28.40;;;20.23;;
489;SDS011;231;48.120;11.576;2022-12-18T10:38:22;33.13;;;20.73;;
489;SDS011;231;48.120;11.576;2022-12-18T10:40:55;31.07;;;21.33;;
489;SDS011;231;48.120;11.576;2022-12-18T10:43:24;27.20;;;18.90;;
489;SDS011;231;48.120;11.576;2022-12-18T10:45:58;26.67;;;18.03;;
489;SDS011;231;48.120;11.576;2022-12-18T10:48:31;31.27;;;20.53;;
489;SDS011;231;48.120;11.576;2022-12-18T10:51:03;32.80;;;20.73;;
489;SDS011;231;48.120;11.576;2022-12-18T10:53:32;29.13;;;20.60;;
489;SDS011;231;48.120;11.576;2022-12-18T10:56:05;29.97;;;18.90;;
489;SDS011;231;48.120;11.576;2022-12-18T10:58:34;33.50;;;21.57;;
489;SDS011;231;48.120;11.576;2022-12-18T11:01:10;25.83;;;18.93;;
489;SDS011;231;48.120;11.576;2022-12-18T11:03:39;33.93;;;20.60;;
489;SDS011;231;48.120;11.576;2022-12-18T11:06:08;33.30;;;21.87;;
489;SDS011;231;48.120;11.576;2022-12-18T11:08:37;30.53;;;19.60;;
489;SDS011;231;48.120;11.576;2022-12-18T11:11:14;31.43;;;20.10;;
489;SDS011;231;48.120;11.576;2022-12-18T11:13:48;34.80;;;20.63;;
489;SDS011;231;48.120;11.576;2022-12-18T11:16:24;35.30;;;22.00;;
489;SDS011;231;48.120;11.576;2022-12-18T11:18:59;34.70;;;22.87;;
489;SDS011;231;48.120;11.576;2022-12-18T11:21:47;35.53;;;21.03;;
489;SDS011;231;48.120;11.576;2022-12-18T11:24:25;36.27;;;21.50;;
489;SDS011;231;48.120;11.576;2022-12-18T11:26:56;25.77;;;18.93;;
489;SDS011;231;48.120;11.576;2022-12-18T11:29:28;29.20;;;18.57;;
489;SDS011;231;48.120;11.576;2022-12-18T11:32:13;34.93;;;22.10;;
489;SDS011;231;48.120;11.576;2022-12-18T11:35:10;31.27;;;20.50;;
489;SDS011;231;48.120;11.576;2022-12-18T11:37:46;30.57;;;20.97;;
489;SDS011;231;48.120;11.576;2022-12-18T11:40:18;28.97;;;19.87;;
489;SDS011;231;48.120;11.576;2022-12-18T11:42:54;30.57;;;20.80;;
489;SDS011;231;48.120;11.576;2022-12-18T11:45:28;29.70;;;20.53;;
489;SDS011;231;48.120;11.576;2022-12-18T11:47:59;29.80;;;20.37;;
489;SDS011;231;48.120;11.576;2022-12-18T11:50:31;24.80;;;18.27;;
489;SDS011;231;48.120;11.576;2022-12-18T11:53:09;29.57;;;18.67;;
489;SDS011;231;48.120;11.576;2022-12-18T11:55:39;31.47;;;19.60;;
489;SDS011;231;48.120;11.576;2022-12-18T11:58:12;28.60;;;18.20;;
489;SDS011;231;48.120;11.576;2022-12-18T12:00:49;28.60;;;18.23;;
489;SDS011;231;48.120;11.576;2022-12-18T12:03:36;31.93;;;20.00;;
489;SDS011;231;48.120;11.576;2022-12-18T12:06:15;32.30;;;19.83;;
489;SDS011;231;48.120;11.576;2022-12-18T12:08:55;29.40;;;18.83;;
489;SDS011;231;48.120;11.576;2022-12-18T12:11:33;29.67;;;20.50;;
489;SDS011;231;48.120;11.576;2022-12-18T12:14:20;26.97;;;20.67;;
489;SDS011;231;48.120;11.576;2022-12-18T12:16:57;28.40;;;20.10;;
489;SDS011;231;48.120;11.576;2022-12-18T12:19:32;31.13;;;18.97;;
489;SDS011;231;48.120;11.576;2022-12-18T12:22:04;30.23;;;20.20;;
489;SDS011;231;48.120;11.576;2022-12-18T12:24:42;25.97;;;16.57;;
489;SDS011;231;48.120;11.576;2022-12-18T12:27:20;31.57;;;18.07;;
489;SDS011;231;48.120;11.576;2022-12-18T12:30:03;26.67;;;19.07;;
489;SDS011;231;48.120;11.576;2022-12-18T12:32:36;26.33;;;20.93;;
489;SDS011;231;48.120;11.576;2022-12-18T12:35:20;27.33;;;17.00;;
489;SDS011;231;48.120;11.576;2022-12-18T12:37:58;27.80;;;17.10;;
489;SDS011;231;48.120;11.576;2022-12-18T12:40:34;24.30;;;19.27;;
489;SDS011;231;48.120;11.576;2022-12-18T12:43:10;27.50;;;16.80;;
489;SDS011;231;48.120;11.576;2022-12-18T12:45:48;28.87;;;19.53;;
489;SDS011;231;48.120;11.576;2022-12-18T12:48:22;31.47;;;18.93;;
489;SDS011;231;48.120;11.576;2022-12-18T12:51:00;29.30;;;20.00;;
489;SDS011;231;48.120;11.576;2022-12-18T12:53:31;25.83;;;18.33;;
489;SDS011;231;48.120;11.576;2022-12-18T12:56:02;25.97;;;18.70;;
489;SDS011;231;48.120;11.576;2022-12-18T12:58:31;25.50;;;17.27;;
489;SDS011;231;48.120;11.576;2022-12-18T13:01:10;24.83;;;17.70;;
489;SDS011;231;48.120;11.576;2022-12-18T13:03:46;23.27;;;17.70;;
489;SDS011;231;48.120;11.576;2022-12-18T13:06:23;23.93;;;15.50;;
489;SDS011;231;48.120;11.576;2022-12-18T13:08:59;32.20;;;21.20;;
489;SDS011;231;48.120;11.576;2022-12-18T13:11:29;26.60;;;18.90;;
489;SDS011;231;48.120;11.576;2022-12-18T13:14:23;25.87;;;17.40;;
489;SDS011;231;48.120;11.576;2022-12-18T13:19:43;29.63;;;17.90;;
489;SDS011;231;48.120;11.576;2022-12-18T13:22:20;30.83;;;20.30;;
489;SDS011;231;48.120;11.576;2022-12-18T13:24:49;27.13;;;18.87;;
489;SDS011;231;48.120;11.576;2022-12-18T13:36:31;29.10;;;17.90;;
489;SDS011;231;48.120;11.576;2022-12-18T13:39:09;27.10;;;16.00;;
489;SDS011;231;48.120;11.576;2022-12-18T13:41:51;32.30;;;19.77;;
489;SDS011;231;48.120;11.576;2022-12-18T13:44:23;30.23;;;19.03;;
489;SDS011;231;48.120;11.576;2022-12-18T13:46:58;29.60;;;19.77;;
489;SDS011;231;48.120;11.576;2022-12-18T13:49:27;45.67;;;32.17;;
489;SDS011;231;48.120;11.576;2022-12-18T13:52:10;24.20;;;18.50;;
489;SDS011;231;48.120;11.576;2022-12-18T13:54:45;31.07;;;18.60;;
489;SDS011;231;48.120;11.576;2022-12-18T13:57:25;26.10;;;18.60;;
489;SDS011;231;48.120;11.576;2022-12-18T13:59:54;32.50;;;21.70;;
489;SDS011;231;48.120;11.576;2022-12-18T14:02:25;25.33;;;16.43;;
489;SDS011;231;48.120;11.576;2022-12-18T14:04:54;26.63;;;18.47;;
489;SDS011;231;48.120;11.576;2022-12-18T14:07:22;33.83;;;22.30;;
489;SDS011;231;48.120;11.576;2022-12-18T14:09:51;28.37;;;18.93;;
489;SDS011;231;48.120;11.576;2022-12-18T14:12:22;32.63;;;20.90;;
489;SDS011;231;48.120;11.576;2022-12-18T14:15:11;37.50;;;19.97;;
489;SDS011;231;48.120;11.576;2022-12-18T14:17:48;30.47;;;19.43;;
489;SDS011;231;48.120;11.576;2022-12-18T14:20:16;27.30;;;19.20;;
489;SDS011;231;48.120;11.576;2022-12-18T14:22:45;29.83;;;19.50;;
489;SDS011;231;48.120;11.576;2022-12-18T14:25:15;26.17;;;18.20;;
489;SDS011;231;48.120;11.576;2022-12-18T14:27:45;27.83;;;19.10;;
489;SDS011;231;48.120;11.576;2022-12-18T14:30:27;28.60;;;18.90;;
489;SDS011;231;48.120;11.576;2022-12-18T14:33:00;29.00;;;18.43;;
489;SDS011;231;48.120;11.576;2022-12-18T14:35:28;30.10;;;20.73;;
489;SDS011;231;48.120;11.576;2022-12-18T14:38:09;26.40;;;18.53;;
489;SDS011;231;48.120;11.576;2022-12-18T14:40:37;30.57;;;19.07;;
489;SDS011;231;48.120;11.576;2022-12-18T14:43:04;32.27;;;21.60;;
489;SDS011;231;48.120;11.576;2022-12-18T14:45:35;26.77;;;18.93;;
489;SDS011;231;48.120;11.576;2022-12-18T14:48:05;28.10;;;19.10;;
489;SDS011;231;48.120;11.576;2022-12-18T14:50:33;30.00;;;18.40;;
489;SDS011;231;48.120;11.576;2022-12-18T14:53:00;27.83;;;19.93;;
489;SDS011;231;48.120;11.576;2022-12-18T14:55:28;30.20;;;19.37;;
489;SDS011;231;48.120;11.576;2022-12-18T14:57:55;27.37;;;18.63;;
489;SDS011;231;48.120;11.576;2022-12-18T15:00:24;26.37;;;17.67;;
489;SDS011;231;48.120;11.576;2022-12-18T15:02:53;35.40;;;20.10;;
489;SDS011;231;48.120;11.576;2022-12-18T15:05:24;29.40;;;20.90;;
489;SDS011;231;48.120;11.576;2022-12-18T15:07:53;28.00;;;19.20;;
489;SDS011;231;48.120;11.576;2022-12-18T15:10:21;33.97;;;20.07;;
489;SDS011;231;48.120;11.576;2022-12-18T15:13:05;31.77;;;20.13;;
489;SDS011;231;48.120;11.576;2022-12-18T15:18:19;29.20;;;19.73;;
489;SDS011;231;48.120;11.576;2022-12-18T15:20:48;25.13;;;18.00;;
489;SDS011;231;48.120;11.576;2022-12-18T15:23:17;29.63;;;19.83;;
489;SDS011;231;48.120;11.576;2022-12-18T15:25:47;32.43;;;20.17;;
489;SDS011;231;48.120;11.576;2022-12-18T15:28:22;29.47;;;19.87;;
489;SDS011;231;48.120;11.576;2022-12-18T15:30:58;30.23;;;19.73;;
489;SDS011;231;48.120;11.576;2022-12-18T15:33:30;30.33;;;20.03;;
489;SDS011;231;48.120;11.576;2022-12-18T15:35:59;35.13;;;24.10;;
489;SDS011;231;48.120;11.576;2022-12-18T15:38:27;32.27;;;21.03;;
489;SDS011;231;48.120;11.576;2022-12-18T15:40:54;34.63;;;23.43;;